sensor_id;sensor_type;location;lat;lon;timestamp;pressure;altitude;pressure_sealevel;temperature;humidity
9969;BME280;5025;48.890;9.278;2023-03-22T00:00:36;98633.09;;;11.51;64.86
9969;BME280;5025;48.890;9.278;2023-03-22T00:03:02;98633.34;;;11.50;64.79
9969;BME280;5025;48.890;9.278;2023-03-22T00:05:28;98625.94;;;11.45;64.88
9969;BME280;5025;48.890;9.278;2023-03-22T00:07:55;98631.84;;;11.42;65.10
9969;BME280;5025;48.890;9.278;2023-03-22T00:10:24;98628.53;;;11.40;65.28
9969;BME280;5025;48.890;9.278;2023-03-22T00:12:51;98626.28;;;11.37;65.23
9969;BME280;5025;48.890;9.278;2023-03-22T00:15:17;98626.78;;;11.34;65.09
9969;BME280;5025;48.890;9.278;2023-03-22T00:17:42;98620.78;;;11.32;65.54
9969;BME280;5025;48.890;9.278;2023-03-22T00:20:09;98616.91;;;11.27;65.51
9969;BME280;5025;48.890;9.278;2023-03-22T00:22:35;98620.94;;;11.25;65.44
9969;BME280;5025;48.890;9.278;2023-03-22T00:25:01;98614.09;;;11.22;65.53
9969;BME280;5025;48.890;9.278;2023-03-22T00:27:26;98613.75;;;11.19;65.70
9969;BME280;5025;48.890;9.278;2023-03-22T00:29:52;98609.31;;;11.12;65.72
9969;BME280;5025;48.890;9.278;2023-03-22T00:32:17;98607.31;;;11.08;65.91
9969;BME280;5025;48.890;9.278;2023-03-22T00:34:42;98610.25;;;11.06;65.90
9969;BME280;5025;48.890;9.278;2023-03-22T00:37:08;98603.44;;;11.04;66.14
9969;BME280;5025;48.890;9.278;2023-03-22T00:39:33;98616.38;;;11.02;66.36
9969;BME280;5025;48.890;9.278;2023-03-22T00:41:59;98610.97;;;11.02;66.27
9969;BME280;5025;48.890;9.278;2023-03-22T00:44:24;98607.66;;;11.00;66.18
9969;BME280;5025;48.890;9.278;2023-03-22T00:46:49;98610.59;;;10.98;66.58
9969;BME280;5025;48.890;9.278;2023-03-22T00:49:15;98594.84;;;10.95;66.57
9969;BME280;5025;48.890;9.278;2023-03-22T00:51:40;98597.78;;;10.93;66.64
9969;BME280;5025;48.890;9.278;2023-03-22T00:54:06;98602.38;;;10.93;66.57
9969;BME280;5025;48.890;9.278;2023-03-22T00:56:31;98603.31;;;10.87;66.79
9969;BME280;5025;48.890;9.278;2023-03-22T00:58:58;98599.19;;;10.84;66.95
9969;BME280;5025;48.890;9.278;2023-03-22T01:01:23;98595.56;;;10.79;67.07
9969;BME280;5025;48.890;9.278;2023-03-22T01:03:48;98587.94;;;10.75;67.12
9969;BME280;5025;48.890;9.278;2023-03-22T01:06:14;98580.31;;;10.72;67.33
9969;BME280;5025;48.890;9.278;2023-03-22T01:08:40;98591.91;;;10.73;67.28
9969;BME280;5025;48.890;9.278;2023-03-22T01:11:07;98587.81;;;10.70;67.38
9969;BME280;5025;48.890;9.278;2023-03-22T01:13:33;98576.66;;;10.67;67.52
9969;BME280;5025;48.890;9.278;2023-03-22T01:16:01;98576.66;;;10.67;67.34
9969;BME280;5025;48.890;9.278;2023-03-22T01:18:26;98583.34;;;10.64;67.60
9969;BME280;5025;48.890;9.278;2023-03-22T01:20:52;98583.00;;;10.61;67.90
9969;BME280;5025;48.890;9.278;2023-03-22T01:23:17;98586.72;;;10.59;67.87
9969;BME280;5025;48.890;9.278;2023-03-22T01:25:42;98572.06;;;10.55;68.14
9969;BME280;5025;48.890;9.278;2023-03-22T01:28:08;98563.63;;;10.52;68.20
9969;BME280;5025;48.890;9.278;2023-03-22T01:30:33;98561.75;;;10.52;68.38
9969;BME280;5025;48.890;9.278;2023-03-22T01:32:59;98563.88;;;10.50;68.47
9969;BME280;5025;48.890;9.278;2023-03-22T01:35:24;98565.38;;;10.46;68.55
9969;BME280;5025;48.890;9.278;2023-03-22T01:37:50;98565.50;;;10.39;68.82
9969;BME280;5025;48.890;9.278;2023-03-22T01:40:16;98563.03;;;10.38;68.99
9969;BME280;5025;48.890;9.278;2023-03-22T01:42:41;98552.47;;;10.36;69.12
9969;BME280;5025;48.890;9.278;2023-03-22T01:47:40;98548.94;;;10.36;69.31
9969;BME280;5025;48.890;9.278;2023-03-22T01:50:07;98547.75;;;10.32;69.40
9969;BME280;5025;48.890;9.278;2023-03-22T01:52:33;98546.47;;;10.34;69.41
9969;BME280;5025;48.890;9.278;2023-03-22T01:54:59;98546.09;;;10.31;69.49
9969;BME280;5025;48.890;9.278;2023-03-22T01:57:24;98543.63;;;10.29;69.44
9969;BME280;5025;48.890;9.278;2023-03-22T01:59:50;98551.94;;;10.28;69.51
9969;BME280;5025;48.890;9.278;2023-03-22T02:02:16;98546.53;;;10.28;69.61
9969;BME280;5025;48.890;9.278;2023-03-22T02:04:47;98544.09;;;10.26;69.52
9969;BME280;5025;48.890;9.278;2023-03-22T02:07:16;98540.81;;;10.24;69.67
9969;BME280;5025;48.890;9.278;2023-03-22T02:09:52;98545.34;;;10.23;69.57
9969;BME280;5025;48.890;9.278;2023-03-22T02:15:24;98548.75;;;10.19;69.82
9969;BME280;5025;48.890;9.278;2023-03-22T02:18:09;98546.28;;;10.17;69.80
9969;BME280;5025;48.890;9.278;2023-03-22T02:35:17;98522.53;;;9.96;69.98
9969;BME280;5025;48.890;9.278;2023-03-22T02:43:34;98521.84;;;9.89;70.08
9969;BME280;5025;48.890;9.278;2023-03-22T02:48:42;98525.81;;;9.86;70.30
9969;BME280;5025;48.890;9.278;2023-03-22T02:51:29;98521.47;;;9.85;70.40
9969;BME280;5025;48.890;9.278;2023-03-22T02:54:23;98527.09;;;9.83;70.26
9969;BME280;5025;48.890;9.278;2023-03-22T02:57:04;98522.16;;;9.80;70.36
9969;BME280;5025;48.890;9.278;2023-03-22T02:59:33;98518.88;;;9.78;70.33
9969;BME280;5025;48.890;9.278;2023-03-22T03:02:02;98525.78;;;9.74;70.25
9969;BME280;5025;48.890;9.278;2023-03-22T03:04:34;98519.22;;;9.70;70.49
9969;BME280;5025;48.890;9.278;2023-03-22T03:07:05;98518.00;;;9.66;70.61
9969;BME280;5025;48.890;9.278;2023-03-22T03:09:32;98520.13;;;9.64;70.66
9969;BME280;5025;48.890;9.278;2023-03-22T03:11:57;98524.91;;;9.62;70.69
9969;BME280;5025;48.890;9.278;2023-03-22T03:14:30;98518.94;;;9.60;70.81
9969;BME280;5025;48.890;9.278;2023-03-22T03:25:32;98534.47;;;9.46;70.84
9969;BME280;5025;48.890;9.278;2023-03-22T03:29:03;98532.44;;;9.41;70.64
9969;BME280;5025;48.890;9.278;2023-03-22T03:33:36;98540.41;;;9.36;70.97
9969;BME280;5025;48.890;9.278;2023-03-22T03:36:09;98535.47;;;9.33;71.09
9969;BME280;5025;48.890;9.278;2023-03-22T03:38:38;98529.22;;;9.32;70.91
9969;BME280;5025;48.890;9.278;2023-03-22T03:41:09;98534.84;;;9.31;70.90
9969;BME280;5025;48.890;9.278;2023-03-22T03:43:38;98530.13;;;9.26;71.06
9969;BME280;5025;48.890;9.278;2023-03-22T03:46:04;98532.25;;;9.24;71.16
9969;BME280;5025;48.890;9.278;2023-03-22T03:48:31;98540.34;;;9.24;71.20
9969;BME280;5025;48.890;9.278;2023-03-22T03:50:59;98535.16;;;9.23;71.31
9969;BME280;5025;48.890;9.278;2023-03-22T03:53:26;98534.34;;;9.22;71.33
9969;BME280;5025;48.890;9.278;2023-03-22T03:55:51;98532.34;;;9.18;71.31
9969;BME280;5025;48.890;9.278;2023-03-22T03:58:16;98535.84;;;9.18;71.55
9969;BME280;5025;48.890;9.278;2023-03-22T04:00:43;98531.97;;;9.14;71.65
9969;BME280;5025;48.890;9.278;2023-03-22T04:03:10;98542.13;;;9.12;71.80
9969;BME280;5025;48.890;9.278;2023-03-22T04:05:36;98542.22;;;9.05;71.62
9969;BME280;5025;48.890;9.278;2023-03-22T04:08:01;98543.13;;;8.99;71.97
9969;BME280;5025;48.890;9.278;2023-03-22T04:10:27;98547.06;;;8.96;71.98
9969;BME280;5025;48.890;9.278;2023-03-22T04:12:52;98544.59;;;8.95;72.00
9969;BME280;5025;48.890;9.278;2023-03-22T04:15:17;98545.44;;;8.95;71.85
9969;BME280;5025;48.890;9.278;2023-03-22T04:17:43;98546.47;;;8.94;72.00
9969;BME280;5025;48.890;9.278;2023-03-22T04:20:09;98545.06;;;8.92;72.33
9969;BME280;5025;48.890;9.278;2023-03-22T04:22:37;98539.31;;;8.88;71.99
9969;BME280;5025;48.890;9.278;2023-03-22T04:25:12;98539.53;;;8.87;72.27
9969;BME280;5025;48.890;9.278;2023-03-22T04:27:42;98527.53;;;8.83;72.26
9969;BME280;5025;48.890;9.278;2023-03-22T04:30:13;98529.41;;;8.82;72.19
9969;BME280;5025;48.890;9.278;2023-03-22T04:32:43;98529.06;;;8.78;72.21
9969;BME280;5025;48.890;9.278;2023-03-22T04:35:09;98530.53;;;8.74;72.39
9969;BME280;5025;48.890;9.278;2023-03-22T04:37:34;98517.53;;;8.71;72.56
9969;BME280;5025;48.890;9.278;2023-03-22T04:39:59;98513.41;;;8.69;72.32
9969;BME280;5025;48.890;9.278;2023-03-22T04:42:25;98517.97;;;8.68;72.61
9969;BME280;5025;48.890;9.278;2023-03-22T04:44:51;98513.03;;;8.65;72.74
9969;BME280;5025;48.890;9.278;2023-03-22T04:47:16;98520.06;;;8.66;72.73
9969;BME280;5025;48.890;9.278;2023-03-22T04:49:42;98519.44;;;8.64;72.90
9969;BME280;5025;48.890;9.278;2023-03-22T04:52:08;98505.19;;;8.64;72.93
9969;BME280;5025;48.890;9.278;2023-03-22T04:54:34;98511.16;;;8.66;72.70
9969;BME280;5025;48.890;9.278;2023-03-22T04:56:59;98504.72;;;8.67;72.96
9969;BME280;5025;48.890;9.278;2023-03-22T04:59:25;98506.97;;;8.70;73.03
9969;BME280;5025;48.890;9.278;2023-03-22T05:01:50;98499.28;;;8.73;72.89
9969;BME280;5025;48.890;9.278;2023-03-22T05:04:16;98500.69;;;8.76;72.90
9969;BME280;5025;48.890;9.278;2023-03-22T05:06:42;98493.00;;;8.79;72.95
9969;BME280;5025;48.890;9.278;2023-03-22T05:09:07;98490.53;;;8.78;72.75
9969;BME280;5025;48.890;9.278;2023-03-22T05:11:33;98493.00;;;8.79;72.64
9969;BME280;5025;48.890;9.278;2023-03-22T05:13:58;98481.84;;;8.76;72.61
9969;BME280;5025;48.890;9.278;2023-03-22T05:16:24;98485.53;;;8.63;72.91
9969;BME280;5025;48.890;9.278;2023-03-22T05:18:50;98490.72;;;8.58;73.21
9969;BME280;5025;48.890;9.278;2023-03-22T05:21:19;98480.81;;;8.58;73.23
9969;BME280;5025;48.890;9.278;2023-03-22T05:23:53;98484.53;;;8.57;72.99
9969;BME280;5025;48.890;9.278;2023-03-22T05:26:19;98487.53;;;8.49;73.37
9969;BME280;5025;48.890;9.278;2023-03-22T05:28:48;98492.34;;;8.40;73.38
9969;BME280;5025;48.890;9.278;2023-03-22T05:31:14;98492.28;;;8.22;73.64
9969;BME280;5025;48.890;9.278;2023-03-22T05:33:41;98498.91;;;8.26;73.83
9969;BME280;5025;48.890;9.278;2023-03-22T05:36:07;98501.94;;;8.30;73.49
9969;BME280;5025;48.890;9.278;2023-03-22T05:38:33;98498.81;;;8.33;73.35
9969;BME280;5025;48.890;9.278;2023-03-22T05:40:58;98503.53;;;8.37;73.38
9969;BME280;5025;48.890;9.278;2023-03-22T05:43:23;98498.75;;;8.39;73.41
9969;BME280;5025;48.890;9.278;2023-03-22T05:45:49;98492.34;;;8.40;73.38
9969;BME280;5025;48.890;9.278;2023-03-22T05:48:15;98495.44;;;8.44;73.32
9969;BME280;5025;48.890;9.278;2023-03-22T05:50:40;98494.16;;;8.47;73.28
9969;BME280;5025;48.890;9.278;2023-03-22T05:53:06;98502.47;;;8.45;73.20
9969;BME280;5025;48.890;9.278;2023-03-22T05:55:31;98498.75;;;8.46;73.34
9969;BME280;5025;48.890;9.278;2023-03-22T05:57:57;98499.31;;;8.48;73.42
9969;BME280;5025;48.890;9.278;2023-03-22T06:00:23;98504.50;;;8.50;73.45
9969;BME280;5025;48.890;9.278;2023-03-22T06:02:49;98505.69;;;8.54;73.28
9969;BME280;5025;48.890;9.278;2023-03-22T06:05:17;98507.94;;;8.57;73.28
9969;BME280;5025;48.890;9.278;2023-03-22T06:07:42;98498.59;;;8.59;73.16
9969;BME280;5025;48.890;9.278;2023-03-22T06:10:11;98496.50;;;8.61;73.01
9969;BME280;5025;48.890;9.278;2023-03-22T06:12:37;98500.59;;;8.64;72.95
9969;BME280;5025;48.890;9.278;2023-03-22T06:15:02;98499.34;;;8.67;72.95
9969;BME280;5025;48.890;9.278;2023-03-22T06:17:28;98508.47;;;8.66;72.98
9969;BME280;5025;48.890;9.278;2023-03-22T06:19:54;98506.84;;;8.65;73.01
9969;BME280;5025;48.890;9.278;2023-03-22T06:22:20;98516.75;;;8.64;72.99
9969;BME280;5025;48.890;9.278;2023-03-22T06:24:46;98512.22;;;8.65;72.90
9969;BME280;5025;48.890;9.278;2023-03-22T06:27:11;98510.56;;;8.64;72.92
9969;BME280;5025;48.890;9.278;2023-03-22T06:29:37;98508.69;;;8.64;72.95
9969;BME280;5025;48.890;9.278;2023-03-22T06:32:02;98520.06;;;8.66;72.81
9969;BME280;5025;48.890;9.278;2023-03-22T06:34:28;98524.63;;;8.66;72.79
9969;BME280;5025;48.890;9.278;2023-03-22T06:36:54;98521.47;;;8.69;72.77
9969;BME280;5025;48.890;9.278;2023-03-22T06:39:20;98527.09;;;8.67;72.72
9969;BME280;5025;48.890;9.278;2023-03-22T06:41:45;98527.94;;;8.68;72.89
9969;BME280;5025;48.890;9.278;2023-03-22T06:44:11;98534.72;;;8.70;72.80
9969;BME280;5025;48.890;9.278;2023-03-22T06:46:37;98538.63;;;8.74;72.81
9969;BME280;5025;48.890;9.278;2023-03-22T06:49:02;98533.00;;;8.76;72.96
9969;BME280;5025;48.890;9.278;2023-03-22T06:51:28;98533.59;;;8.78;72.92
9969;BME280;5025;48.890;9.278;2023-03-22T06:53:53;98537.50;;;8.82;72.73
9969;BME280;5025;48.890;9.278;2023-03-22T06:56:18;98537.88;;;8.86;72.95
9969;BME280;5025;48.890;9.278;2023-03-22T06:58:43;98536.59;;;8.88;72.94
9969;BME280;5025;48.890;9.278;2023-03-22T07:01:09;98536.97;;;8.92;73.03
9969;BME280;5025;48.890;9.278;2023-03-22T07:03:34;98537.16;;;8.97;72.86
9969;BME280;5025;48.890;9.278;2023-03-22T07:06:05;98532.94;;;9.01;72.96
9969;BME280;5025;48.890;9.278;2023-03-22T07:08:31;98532.25;;;9.06;72.96
9969;BME280;5025;48.890;9.278;2023-03-22T07:10:58;98526.19;;;9.10;72.71
9969;BME280;5025;48.890;9.278;2023-03-22T07:13:23;98528.44;;;9.13;72.72
9969;BME280;5025;48.890;9.278;2023-03-22T07:15:54;98536.47;;;9.20;72.79
9969;BME280;5025;48.890;9.278;2023-03-22T07:18:19;98533.06;;;9.25;72.57
9969;BME280;5025;48.890;9.278;2023-03-22T07:20:45;98533.22;;;9.30;72.83
9969;BME280;5025;48.890;9.278;2023-03-22T07:23:10;98535.81;;;9.37;72.58
9969;BME280;5025;48.890;9.278;2023-03-22T07:25:35;98527.88;;;9.42;72.43
9969;BME280;5025;48.890;9.278;2023-03-22T07:28:01;98520.75;;;9.47;72.81
9969;BME280;5025;48.890;9.278;2023-03-22T07:30:26;98517.16;;;9.54;72.59
9969;BME280;5025;48.890;9.278;2023-03-22T07:32:51;98517.03;;;9.60;72.57
9969;BME280;5025;48.890;9.278;2023-03-22T07:35:17;98519.22;;;9.70;72.38
9969;BME280;5025;48.890;9.278;2023-03-22T07:37:43;98524.50;;;9.77;72.31
9969;BME280;5025;48.890;9.278;2023-03-22T07:40:09;98515.72;;;9.81;72.37
9969;BME280;5025;48.890;9.278;2023-03-22T07:42:34;98517.50;;;9.87;72.19
9969;BME280;5025;48.890;9.278;2023-03-22T07:45:00;98515.53;;;9.95;72.00
9969;BME280;5025;48.890;9.278;2023-03-22T07:47:25;98520.00;;;10.01;71.99
9969;BME280;5025;48.890;9.278;2023-03-22T07:49:51;98515.91;;;10.10;71.71
9969;BME280;5025;48.890;9.278;2023-03-22T07:52:16;98519.06;;;10.19;71.53
9969;BME280;5025;48.890;9.278;2023-03-22T07:54:42;98512.28;;;10.28;71.30
9969;BME280;5025;48.890;9.278;2023-03-22T07:57:07;98515.72;;;10.35;71.02
9969;BME280;5025;48.890;9.278;2023-03-22T07:59:33;98520.06;;;10.48;70.46
9969;BME280;5025;48.890;9.278;2023-03-22T08:01:58;98521.59;;;10.56;70.27
9969;BME280;5025;48.890;9.278;2023-03-22T08:04:23;98515.34;;;10.67;69.38
9969;BME280;5025;48.890;9.278;2023-03-22T08:06:50;98521.47;;;10.74;68.84
9969;BME280;5025;48.890;9.278;2023-03-22T08:09:16;98524.88;;;10.82;68.17
9969;BME280;5025;48.890;9.278;2023-03-22T08:11:41;98521.00;;;10.89;68.06
9969;BME280;5025;48.890;9.278;2023-03-22T08:14:06;98522.03;;;11.00;67.57
9969;BME280;5025;48.890;9.278;2023-03-22T08:16:33;98518.94;;;11.08;66.77
9969;BME280;5025;48.890;9.278;2023-03-22T08:18:58;98523.41;;;11.15;66.03
9969;BME280;5025;48.890;9.278;2023-03-22T08:21:24;98521.16;;;11.23;65.57
9969;BME280;5025;48.890;9.278;2023-03-22T08:23:49;98514.78;;;11.29;65.37
9969;BME280;5025;48.890;9.278;2023-03-22T08:26:15;98522.50;;;11.38;64.73
9969;BME280;5025;48.890;9.278;2023-03-22T08:28:40;98510.72;;;11.44;64.32
9969;BME280;5025;48.890;9.278;2023-03-22T08:31:11;98513.88;;;11.53;63.96
9969;BME280;5025;48.890;9.278;2023-03-22T08:33:37;98508.41;;;11.64;63.40
9969;BME280;5025;48.890;9.278;2023-03-22T08:36:15;98506.69;;;11.75;62.64
9969;BME280;5025;48.890;9.278;2023-03-22T08:38:41;98512.53;;;11.84;62.50
9969;BME280;5025;48.890;9.278;2023-03-22T08:41:07;98508.63;;;11.92;62.25
9969;BME280;5025;48.890;9.278;2023-03-22T08:43:32;98502.03;;;11.99;61.83
9969;BME280;5025;48.890;9.278;2023-03-22T08:45:58;98503.25;;;12.09;61.53
9969;BME280;5025;48.890;9.278;2023-03-22T08:48:23;98499.88;;;12.18;60.90
9969;BME280;5025;48.890;9.278;2023-03-22T08:50:49;98497.84;;;12.26;60.69
9969;BME280;5025;48.890;9.278;2023-03-22T08:53:14;98502.03;;;12.33;60.01
9969;BME280;5025;48.890;9.278;2023-03-22T08:55:40;98502.41;;;12.42;59.56
9969;BME280;5025;48.890;9.278;2023-03-22T08:58:12;98504.97;;;12.49;58.84
9969;BME280;5025;48.890;9.278;2023-03-22T09:00:37;98496.66;;;12.55;58.74
9969;BME280;5025;48.890;9.278;2023-03-22T09:03:03;98488.69;;;12.66;58.14
9969;BME280;5025;48.890;9.278;2023-03-22T09:05:29;98489.66;;;12.77;58.01
9969;BME280;5025;48.890;9.278;2023-03-22T09:07:54;98484.59;;;12.85;57.77
9969;BME280;5025;48.890;9.278;2023-03-22T09:10:20;98487.44;;;12.96;56.81
9969;BME280;5025;48.890;9.278;2023-03-22T09:12:45;98487.13;;;12.92;56.06
9969;BME280;5025;48.890;9.278;2023-03-22T09:15:11;98481.22;;;12.95;55.33
9969;BME280;5025;48.890;9.278;2023-03-22T09:17:36;98482.16;;;13.06;54.97
9969;BME280;5025;48.890;9.278;2023-03-22T09:20:02;98477.69;;;13.17;54.36
9969;BME280;5025;48.890;9.278;2023-03-22T09:22:28;98480.66;;;13.37;54.32
9969;BME280;5025;48.890;9.278;2023-03-22T09:24:53;98476.34;;;13.41;53.66
9969;BME280;5025;48.890;9.278;2023-03-22T09:27:18;98471.00;;;13.47;53.48
9969;BME280;5025;48.890;9.278;2023-03-22T09:29:44;98470.47;;;13.50;53.13
9969;BME280;5025;48.890;9.278;2023-03-22T09:32:09;98470.56;;;13.60;52.37
9969;BME280;5025;48.890;9.278;2023-03-22T09:34:34;98473.09;;;13.67;51.88
9969;BME280;5025;48.890;9.278;2023-03-22T09:37:00;98471.59;;;13.81;51.90
9969;BME280;5025;48.890;9.278;2023-03-22T09:39:27;98466.44;;;13.85;52.51
9969;BME280;5025;48.890;9.278;2023-03-22T09:41:56;98471.47;;;13.98;52.10
9969;BME280;5025;48.890;9.278;2023-03-22T09:44:35;98469.09;;;14.07;51.51
9969;BME280;5025;48.890;9.278;2023-03-22T09:47:04;98461.53;;;14.14;51.28
9969;BME280;5025;48.890;9.278;2023-03-22T09:49:38;98453.13;;;14.15;50.35
9969;BME280;5025;48.890;9.278;2023-03-22T09:52:11;98447.66;;;14.10;50.92
9969;BME280;5025;48.890;9.278;2023-03-22T09:54:39;98445.59;;;14.28;50.94
9969;BME280;5025;48.890;9.278;2023-03-22T10:10:59;98416.34;;;14.83;48.75
9969;BME280;5025;48.890;9.278;2023-03-22T10:13:35;98416.38;;;14.98;48.76
9969;BME280;5025;48.890;9.278;2023-03-22T10:16:05;98425.88;;;14.96;48.10
9969;BME280;5025;48.890;9.278;2023-03-22T10:18:35;98417.72;;;14.91;48.22
9969;BME280;5025;48.890;9.278;2023-03-22T10:21:06;98416.13;;;15.00;48.35
9969;BME280;5025;48.890;9.278;2023-03-22T10:23:55;98405.28;;;15.20;48.22
9969;BME280;5025;48.890;9.278;2023-03-22T10:26:26;98405.88;;;15.28;47.83
9969;BME280;5025;48.890;9.278;2023-03-22T10:28:59;98405.59;;;15.34;47.90
9969;BME280;5025;48.890;9.278;2023-03-22T10:31:27;98410.25;;;15.49;47.81
9969;BME280;5025;48.890;9.278;2023-03-22T10:34:01;98408.06;;;15.51;46.91
9969;BME280;5025;48.890;9.278;2023-03-22T10:36:30;98398.28;;;15.60;46.63
9969;BME280;5025;48.890;9.278;2023-03-22T10:39:12;98398.25;;;15.50;46.30
9969;BME280;5025;48.890;9.278;2023-03-22T10:41:41;98394.44;;;15.41;46.52
9969;BME280;5025;48.890;9.278;2023-03-22T10:44:09;98397.72;;;15.43;46.83
9969;BME280;5025;48.890;9.278;2023-03-22T10:46:39;98397.75;;;15.58;46.70
9969;BME280;5025;48.890;9.278;2023-03-22T10:49:06;98389.03;;;15.72;46.55
9969;BME280;5025;48.890;9.278;2023-03-22T10:51:40;98398.31;;;15.81;46.70
9969;BME280;5025;48.890;9.278;2023-03-22T10:54:13;98391.81;;;15.77;46.18
9969;BME280;5025;48.890;9.278;2023-03-22T10:56:39;98387.69;;;15.90;46.09
9969;BME280;5025;48.890;9.278;2023-03-22T10:59:05;98386.63;;;15.81;45.39
9969;BME280;5025;48.890;9.278;2023-03-22T11:01:33;98380.91;;;15.82;45.41
9969;BME280;5025;48.890;9.278;2023-03-22T11:04:11;98386.34;;;15.98;45.67
9969;BME280;5025;48.890;9.278;2023-03-22T11:06:40;98377.03;;;16.19;45.47
9969;BME280;5025;48.890;9.278;2023-03-22T11:09:16;98379.69;;;16.45;45.48
9969;BME280;5025;48.890;9.278;2023-03-22T11:11:54;98374.53;;;16.38;44.47
9969;BME280;5025;48.890;9.278;2023-03-22T11:16:57;98375.91;;;16.36;44.68
9969;BME280;5025;48.890;9.278;2023-03-22T11:19:24;98374.25;;;16.40;44.71
9969;BME280;5025;48.890;9.278;2023-03-22T11:21:51;98373.69;;;16.53;44.71
9969;BME280;5025;48.890;9.278;2023-03-22T11:24:17;98368.66;;;16.76;44.53
9969;BME280;5025;48.890;9.278;2023-03-22T11:27:04;98366.41;;;16.98;44.47
9969;BME280;5025;48.890;9.278;2023-03-22T11:29:40;98360.47;;;16.86;44.36
9969;BME280;5025;48.890;9.278;2023-03-22T11:32:20;98350.66;;;16.80;44.58
9969;BME280;5025;48.890;9.278;2023-03-22T11:34:46;98356.19;;;16.64;44.27
9969;BME280;5025;48.890;9.278;2023-03-22T11:37:15;98355.13;;;16.55;44.26
9969;BME280;5025;48.890;9.278;2023-03-22T11:39:47;98354.53;;;16.63;44.46
9969;BME280;5025;48.890;9.278;2023-03-22T11:42:18;98339.00;;;16.69;44.02
9969;BME280;5025;48.890;9.278;2023-03-22T11:44:45;98339.19;;;16.88;43.95
9969;BME280;5025;48.890;9.278;2023-03-22T11:47:12;98342.59;;;17.14;43.71
9969;BME280;5025;48.890;9.278;2023-03-22T11:49:45;98338.38;;;17.32;43.60
9969;BME280;5025;48.890;9.278;2023-03-22T11:52:15;98333.91;;;17.47;44.30
9969;BME280;5025;48.890;9.278;2023-03-22T11:54:41;98334.63;;;17.23;44.03
9969;BME280;5025;48.890;9.278;2023-03-22T11:57:16;98325.50;;;17.38;43.80
9969;BME280;5025;48.890;9.278;2023-03-22T11:59:57;98324.78;;;17.62;43.73
9969;BME280;5025;48.890;9.278;2023-03-22T12:02:26;98315.81;;;17.85;44.01
9969;BME280;5025;48.890;9.278;2023-03-22T12:04:57;98316.47;;;18.06;44.11
9969;BME280;5025;48.890;9.278;2023-03-22T12:07:27;98307.56;;;18.20;43.67
9969;BME280;5025;48.890;9.278;2023-03-22T12:12:27;98309.91;;;18.51;43.73
9969;BME280;5025;48.890;9.278;2023-03-22T12:14:58;98306.03;;;18.76;43.71
9969;BME280;5025;48.890;9.278;2023-03-22T12:17:35;98306.91;;;18.95;43.44
9969;BME280;5025;48.890;9.278;2023-03-22T12:20:20;98295.72;;;19.11;43.25
9969;BME280;5025;48.890;9.278;2023-03-22T12:22:53;98296.22;;;19.32;42.84
9969;BME280;5025;48.890;9.278;2023-03-22T12:25:28;98300.28;;;19.34;42.24
9969;BME280;5025;48.890;9.278;2023-03-22T12:27:58;98291.91;;;19.45;42.37
9969;BME280;5025;48.890;9.278;2023-03-22T12:30:28;98293.06;;;19.58;42.34
9969;BME280;5025;48.890;9.278;2023-03-22T12:35:44;98288.63;;;19.62;41.35
9969;BME280;5025;48.890;9.278;2023-03-22T12:41:04;98281.19;;;19.62;41.49
9969;BME280;5025;48.890;9.278;2023-03-22T12:43:43;98282.03;;;19.63;41.38
9969;BME280;5025;48.890;9.278;2023-03-22T12:46:21;98271.94;;;19.77;41.72
9969;BME280;5025;48.890;9.278;2023-03-22T12:48:52;98278.41;;;19.81;41.36
9969;BME280;5025;48.890;9.278;2023-03-22T12:51:18;98271.94;;;19.77;39.97
9969;BME280;5025;48.890;9.278;2023-03-22T12:53:49;98281.53;;;19.75;39.96
9969;BME280;5025;48.890;9.278;2023-03-22T12:56:23;98274.22;;;19.70;39.93
9969;BME280;5025;48.890;9.278;2023-03-22T12:58:52;98274.25;;;19.37;38.28
9969;BME280;5025;48.890;9.278;2023-03-22T13:04:29;98266.50;;;19.58;38.52
9969;BME280;5025;48.890;9.278;2023-03-22T13:07:07;98259.78;;;19.83;38.43
9969;BME280;5025;48.890;9.278;2023-03-22T13:09:36;98266.06;;;19.98;37.25
9969;BME280;5025;48.890;9.278;2023-03-22T13:19:59;98248.94;;;19.59;32.95
9969;BME280;5025;48.890;9.278;2023-03-22T13:30:14;98230.44;;;20.26;33.49
9969;BME280;5025;48.890;9.278;2023-03-22T13:32:47;98225.97;;;20.02;33.23
9969;BME280;5025;48.890;9.278;2023-03-22T13:36:04;98230.44;;;19.98;33.55
9969;BME280;5025;48.890;9.278;2023-03-22T13:38:09;98222.22;;;19.98;33.31
9969;BME280;5025;48.890;9.278;2023-03-22T13:41:06;98226.16;;;19.92;31.46
9969;BME280;5025;48.890;9.278;2023-03-22T13:46:05;98213.34;;;20.42;30.97
9969;BME280;5025;48.890;9.278;2023-03-22T14:02:15;98192.47;;;20.55;29.75
9969;BME280;5025;48.890;9.278;2023-03-22T14:04:57;98183.88;;;20.85;29.86
9969;BME280;5025;48.890;9.278;2023-03-22T14:07:41;98183.31;;;20.97;29.08
9969;BME280;5025;48.890;9.278;2023-03-22T14:12:51;98173.84;;;21.34;28.53
9969;BME280;5025;48.890;9.278;2023-03-22T14:15:24;98176.28;;;21.36;28.74
9969;BME280;5025;48.890;9.278;2023-03-22T14:20:22;98172.94;;;21.16;28.48
9969;BME280;5025;48.890;9.278;2023-03-22T14:22:54;98171.06;;;20.57;28.83
9969;BME280;5025;48.890;9.278;2023-03-22T14:25:25;98157.06;;;20.45;29.69
9969;BME280;5025;48.890;9.278;2023-03-22T14:27:51;98184.34;;;20.64;29.69
9969;BME280;5025;48.890;9.278;2023-03-22T14:32:54;98166.75;;;20.79;28.82
9969;BME280;5025;48.890;9.278;2023-03-22T14:35:31;98169.97;;;21.04;28.16
9969;BME280;5025;48.890;9.278;2023-03-22T14:38:08;98177.44;;;21.12;27.54
9969;BME280;5025;48.890;9.278;2023-03-22T14:40:36;98151.69;;;20.76;28.55
9969;BME280;5025;48.890;9.278;2023-03-22T14:43:21;98144.56;;;20.53;28.52
9969;BME280;5025;48.890;9.278;2023-03-22T14:45:49;98172.47;;;20.55;28.68
9969;BME280;5025;48.890;9.278;2023-03-22T14:48:20;98160.09;;;20.57;28.89
9969;BME280;5025;48.890;9.278;2023-03-22T14:50:50;98153.50;;;20.45;29.35
9969;BME280;5025;48.890;9.278;2023-03-22T14:53:17;98157.41;;;20.30;29.62
9969;BME280;5025;48.890;9.278;2023-03-22T14:55:44;98157.38;;;20.44;29.50
9969;BME280;5025;48.890;9.278;2023-03-22T14:58:15;98169.78;;;20.41;29.46
9969;BME280;5025;48.890;9.278;2023-03-22T15:00:40;98159.06;;;20.53;29.58
9969;BME280;5025;48.890;9.278;2023-03-22T15:03:12;98154.47;;;20.63;29.85
9969;BME280;5025;48.890;9.278;2023-03-22T15:05:41;98159.75;;;20.73;29.02
9969;BME280;5025;48.890;9.278;2023-03-22T15:08:19;98146.13;;;20.68;29.28
9969;BME280;5025;48.890;9.278;2023-03-22T15:10:54;98149.50;;;20.65;29.69
9969;BME280;5025;48.890;9.278;2023-03-22T15:13:22;98139.41;;;20.74;29.42
9969;BME280;5025;48.890;9.278;2023-03-22T15:15:48;98143.16;;;21.01;29.18
9969;BME280;5025;48.890;9.278;2023-03-22T15:18:17;98138.38;;;21.15;29.06